createdAt,value
2017-11-23T00:00:17.474Z,14.10
2017-11-23T00:00:52.261Z,15.48
2017-11-23T00:01:27.024Z,16.58
2017-11-23T00:02:01.791Z,15.70
2017-11-23T00:02:36.555Z,15.18
2017-11-23T00:03:11.326Z,16.45
2017-11-23T00:03:46.085Z,15.55
2017-11-23T00:04:20.847Z,16.10
2017-11-23T00:04:55.648Z,14.90
2017-11-23T00:05:30.418Z,15.57
2017-11-23T00:06:05.185Z,15.25
2017-11-23T00:06:39.944Z,15.05
2017-11-23T00:07:14.698Z,15.45
2017-11-23T00:07:49.446Z,15.45
2017-11-23T00:08:24.206Z,14.48
2017-11-23T00:08:58.986Z,15.25
2017-11-23T00:09:33.744Z,15.43
2017-11-23T00:10:08.798Z,15.82
2017-11-23T00:10:43.585Z,15.80
2017-11-23T00:11:18.347Z,15.10
2017-11-23T00:11:53.114Z,14.57
2017-11-23T00:12:27.874Z,15.32
2017-11-23T00:13:02.653Z,14.48
2017-11-23T00:13:36.938Z,15.15
2017-11-23T00:14:11.547Z,15.57
2017-11-23T00:14:46.126Z,15.63
2017-11-23T00:15:20.751Z,15.43
2017-11-23T00:15:55.523Z,15.35
2017-11-23T00:16:30.303Z,14.85
2017-11-23T00:17:05.264Z,15.32
2017-11-23T00:17:40.026Z,15.35
2017-11-23T00:18:14.782Z,16.23
2017-11-23T00:18:49.583Z,15.50
2017-11-23T00:19:24.395Z,16.05
2017-11-23T00:19:59.167Z,16.08
2017-11-23T00:20:33.959Z,16.92
2017-11-23T00:21:08.761Z,17.12
2017-11-23T00:21:43.689Z,14.35
2017-11-23T00:22:18.447Z,15.48
2017-11-23T00:22:53.203Z,16.15
2017-11-23T00:23:27.966Z,15.90
2017-11-23T00:24:02.722Z,16.00
2017-11-23T00:24:37.519Z,17.65
2017-11-23T00:25:12.279Z,16.87
2017-11-23T00:25:47.050Z,16.15
2017-11-23T00:26:21.824Z,15.80
2017-11-23T00:26:56.607Z,15.73
2017-11-23T00:27:31.368Z,16.70
2017-11-23T00:28:06.125Z,17.00
2017-11-23T00:28:40.870Z,16.80
2017-11-23T00:29:15.644Z,16.92
2017-11-23T00:29:50.408Z,16.08
2017-11-23T00:30:25.171Z,15.60
2017-11-23T00:31:00.262Z,16.87
2017-11-23T00:31:35.079Z,15.68
2017-11-23T00:32:09.845Z,16.25
2017-11-23T00:32:44.607Z,16.05
2017-11-23T00:33:19.371Z,16.27
2017-11-23T00:33:54.155Z,15.95
2017-11-23T00:34:29.453Z,15.75
2017-11-23T00:35:04.222Z,14.98
2017-11-23T00:35:38.998Z,15.52
2017-11-23T00:36:13.770Z,16.95
2017-11-23T00:36:48.554Z,15.60
2017-11-23T00:37:23.322Z,15.95
2017-11-23T00:37:58.091Z,15.38
2017-11-23T00:38:32.845Z,17.02
2017-11-23T00:39:07.634Z,16.33
2017-11-23T00:39:42.409Z,16.20
2017-11-23T00:40:16.861Z,14.45
2017-11-23T00:40:51.626Z,16.15
2017-11-23T00:41:26.442Z,15.43
2017-11-23T00:42:01.216Z,15.70
2017-11-23T00:42:35.990Z,14.55
2017-11-23T00:43:10.742Z,16.15
2017-11-23T00:43:45.498Z,15.35
2017-11-23T00:44:20.257Z,16.25
2017-11-23T00:44:55.017Z,15.85
2017-11-23T00:45:29.772Z,15.52
2017-11-23T00:46:04.550Z,16.17
2017-11-23T00:46:39.329Z,16.35
2017-11-23T00:47:14.100Z,15.30
2017-11-23T00:47:48.858Z,15.70
2017-11-23T00:48:23.611Z,14.40
2017-11-23T00:48:58.385Z,15.45
2017-11-23T00:49:33.209Z,15.98
2017-11-23T00:50:07.969Z,16.35
2017-11-23T00:50:42.723Z,14.90
2017-11-23T00:51:17.518Z,15.68
2017-11-23T00:51:52.302Z,15.30
2017-11-23T00:52:27.064Z,15.32
2017-11-23T00:53:01.826Z,16.40
2017-11-23T00:53:36.584Z,15.98
2017-11-23T00:54:11.352Z,16.50
2017-11-23T00:54:46.127Z,14.95
2017-11-23T00:55:20.925Z,16.27
2017-11-23T00:55:55.690Z,15.15
2017-11-23T00:56:30.462Z,16.05
2017-11-23T00:57:05.249Z,17.20
2017-11-23T00:57:40.010Z,15.45
2017-11-23T00:58:14.803Z,15.90
2017-11-23T00:58:49.580Z,16.40
2017-11-23T00:59:24.335Z,15.32
2017-11-23T00:59:59.125Z,15.23
2017-11-23T01:00:33.886Z,15.85
2017-11-23T01:01:08.642Z,14.85
2017-11-23T01:01:43.396Z,15.55
2017-11-23T01:02:18.462Z,15.55
2017-11-23T01:02:53.231Z,14.85
2017-11-23T01:03:27.984Z,16.20
2017-11-23T01:04:02.747Z,15.93
2017-11-23T01:04:37.498Z,15.90
2017-11-23T01:05:12.284Z,15.10
2017-11-23T01:05:47.061Z,15.10
2017-11-23T01:06:21.826Z,15.20
2017-11-23T01:06:56.634Z,15.65
2017-11-23T01:07:31.103Z,15.60
2017-11-23T01:08:05.857Z,16.30
2017-11-23T01:08:40.630Z,16.42
2017-11-23T01:09:15.397Z,15.95
2017-11-23T01:09:50.157Z,17.02
2017-11-23T01:10:24.983Z,16.25
2017-11-23T01:11:00.024Z,15.48
2017-11-23T01:11:34.785Z,15.80
2017-11-23T01:12:09.579Z,15.77
2017-11-23T01:12:44.472Z,16.50
2017-11-23T01:13:19.309Z,16.77
2017-11-23T01:13:53.880Z,15.88
2017-11-23T01:14:28.640Z,14.50
2017-11-23T01:15:03.418Z,16.00
2017-11-23T01:15:38.261Z,15.73
2017-11-23T01:16:13.019Z,15.20
2017-11-23T01:16:47.830Z,15.77
2017-11-23T01:17:22.633Z,16.40
2017-11-23T01:17:57.614Z,15.80
2017-11-23T01:18:32.385Z,15.45
2017-11-23T01:19:07.149Z,15.07
2017-11-23T01:19:41.935Z,14.98
2017-11-23T01:20:16.689Z,16.05
2017-11-23T01:20:51.495Z,15.07
2017-11-23T01:21:26.253Z,17.05
2017-11-23T01:22:17.507Z,15.80
2017-11-23T01:22:52.273Z,15.23
2017-11-23T01:23:27.076Z,14.98
2017-11-23T01:24:01.848Z,15.35
2017-11-23T01:24:36.608Z,15.70
2017-11-23T01:25:11.417Z,15.48
2017-11-23T01:25:46.205Z,16.15
2017-11-23T01:26:20.966Z,15.40
2017-11-23T01:26:55.779Z,16.35
2017-11-23T01:27:30.580Z,15.35
2017-11-23T01:28:05.351Z,15.30
2017-11-23T01:28:40.150Z,15.75
2017-11-23T01:29:14.924Z,14.32
2017-11-23T01:29:49.686Z,16.58
2017-11-23T01:30:24.649Z,16.02
2017-11-23T01:30:59.412Z,16.58
2017-11-23T01:31:34.185Z,17.00
2017-11-23T01:32:08.937Z,14.75
2017-11-23T01:32:44.292Z,15.52
2017-11-23T01:33:19.054Z,14.98
2017-11-23T01:33:54.058Z,15.82
2017-11-23T01:34:28.810Z,15.73
2017-11-23T01:35:03.682Z,16.17
2017-11-23T01:35:39.159Z,16.48
2017-11-23T01:36:13.750Z,16.02
2017-11-23T01:36:48.342Z,15.73
2017-11-23T01:37:23.156Z,15.32
2017-11-23T01:37:57.940Z,15.20
2017-11-23T01:38:32.715Z,16.70
2017-11-23T01:39:07.506Z,16.55
2017-11-23T01:39:42.260Z,15.65
2017-11-23T01:40:17.105Z,15.75
2017-11-23T01:40:51.873Z,15.30
2017-11-23T01:41:26.634Z,15.02
2017-11-23T01:42:01.680Z,15.80
2017-11-23T01:42:36.470Z,16.08
2017-11-23T01:43:11.233Z,15.00
2017-11-23T01:43:46.001Z,14.85
2017-11-23T01:44:21.086Z,16.50
2017-11-23T01:44:55.853Z,15.15
2017-11-23T01:45:30.433Z,15.90
2017-11-23T01:46:05.198Z,15.20
2017-11-23T01:46:39.949Z,15.82
2017-11-23T01:47:14.730Z,14.90
2017-11-23T01:47:49.485Z,16.17
2017-11-23T01:48:24.073Z,15.27
2017-11-23T01:48:58.642Z,15.77
2017-11-23T01:49:33.425Z,15.43
2017-11-23T01:50:08.262Z,15.35
2017-11-23T01:50:42.830Z,15.40
2017-11-23T01:51:17.400Z,14.32
2017-11-23T01:51:52.178Z,15.25
2017-11-23T01:52:26.941Z,16.85
2017-11-23T01:53:01.695Z,16.02
2017-11-23T01:53:36.278Z,15.82
2017-11-23T01:54:10.859Z,15.27
2017-11-23T01:54:45.670Z,15.95
2017-11-23T01:55:20.094Z,15.10
2017-11-23T01:55:54.334Z,16.65
2017-11-23T01:56:29.099Z,16.20
2017-11-23T01:57:03.535Z,16.10
2017-11-23T01:57:37.982Z,15.63
2017-11-23T01:58:12.234Z,15.38
2017-11-23T01:58:46.657Z,15.48
2017-11-23T01:59:20.886Z,15.48
2017-11-23T01:59:55.506Z,15.05
2017-11-23T02:00:30.317Z,15.43
2017-11-23T02:01:05.079Z,15.52
2017-11-23T02:01:39.841Z,15.82
2017-11-23T02:02:14.601Z,15.35
2017-11-23T02:02:49.373Z,15.80
2017-11-23T02:03:24.140Z,16.65
2017-11-23T02:03:58.917Z,15.25
2017-11-23T02:04:33.673Z,15.80
2017-11-23T02:05:08.487Z,14.50
2017-11-23T02:05:43.241Z,16.48
2017-11-23T02:06:18.001Z,15.43
2017-11-23T02:06:52.798Z,15.55
2017-11-23T02:07:27.557Z,16.00
2017-11-23T02:08:02.316Z,15.10
2017-11-23T02:08:37.076Z,14.70
2017-11-23T02:09:11.849Z,15.65
2017-11-23T02:09:46.412Z,16.58
2017-11-23T02:10:21.038Z,15.02
2017-11-23T02:10:55.602Z,16.17
2017-11-23T02:11:30.174Z,15.55
2017-11-23T02:12:04.747Z,14.73
2017-11-23T02:12:39.304Z,15.18
2017-11-23T02:13:13.874Z,17.35
2017-11-23T02:13:48.458Z,16.02
2017-11-23T02:14:23.026Z,15.40
2017-11-23T02:14:57.266Z,15.20
2017-11-23T02:15:31.530Z,15.80
2017-11-23T02:16:06.101Z,15.35
2017-11-23T02:16:40.665Z,15.63
2017-11-23T02:17:15.227Z,15.02
2017-11-23T02:17:49.819Z,16.33
2017-11-23T02:18:24.385Z,16.40
2017-11-23T02:18:59.547Z,15.73
2017-11-23T02:19:33.874Z,15.43
2017-11-23T02:20:08.110Z,15.70
2017-11-23T02:20:42.393Z,14.02
2017-11-23T02:21:16.646Z,16.42
2017-11-23T02:21:51.230Z,15.48
2017-11-23T02:22:25.484Z,14.52
2017-11-23T02:22:59.708Z,16.15
2017-11-23T02:23:33.942Z,16.37
2017-11-23T02:24:08.580Z,15.35
2017-11-23T02:24:43.174Z,16.40
2017-11-23T02:25:17.438Z,15.60
2017-11-23T02:25:52.326Z,14.30
2017-11-23T02:26:26.582Z,15.38
2017-11-23T02:27:01.156Z,15.85
2017-11-23T02:27:35.399Z,13.75
2017-11-23T02:28:09.668Z,15.63
2017-11-23T02:28:43.905Z,16.12
2017-11-23T02:29:18.158Z,15.50
2017-11-23T02:29:52.730Z,15.77
2017-11-23T02:30:29.400Z,15.30
2017-11-23T02:31:03.670Z,15.27
2017-11-23T02:31:38.229Z,16.85
2017-11-23T02:32:12.460Z,16.37
2017-11-23T02:32:46.716Z,15.30
2017-11-23T02:33:21.479Z,15.93
2017-11-23T02:33:55.726Z,15.80
2017-11-23T02:34:30.402Z,15.70
2017-11-23T02:35:04.850Z,15.20
2017-11-23T02:35:39.290Z,15.73
2017-11-23T02:36:13.732Z,15.30
2017-11-23T02:36:48.194Z,14.70
2017-11-23T02:37:22.457Z,15.50
2017-11-23T02:37:56.892Z,16.10
2017-11-23T02:38:31.320Z,15.32
2017-11-23T02:39:06.085Z,15.45
2017-11-23T02:39:40.948Z,15.80
2017-11-23T02:40:15.374Z,15.90
2017-11-23T02:40:49.832Z,15.23
2017-11-23T02:41:24.624Z,15.10
2017-11-23T02:41:59.814Z,14.77
2017-11-23T02:42:34.249Z,14.70
2017-11-23T02:43:08.680Z,15.07
2017-11-23T02:43:43.119Z,15.77
2017-11-23T02:44:17.569Z,15.30
2017-11-23T02:44:52.390Z,15.50
2017-11-23T02:45:26.826Z,15.10
2017-11-23T02:46:01.709Z,15.20
2017-11-23T02:46:36.512Z,16.08
2017-11-23T02:47:10.944Z,15.32
2017-11-23T02:47:45.721Z,14.55
2017-11-23T02:48:20.153Z,15.02
2017-11-23T02:48:54.910Z,15.00
2017-11-23T02:49:29.350Z,14.55
2017-11-23T02:50:03.812Z,15.23
2017-11-23T02:50:38.494Z,16.27
2017-11-23T02:51:13.079Z,15.95
2017-11-23T02:51:47.894Z,14.30
2017-11-23T02:52:22.338Z,15.02
2017-11-23T02:52:56.783Z,16.27
2017-11-23T02:53:31.541Z,16.00
2017-11-23T02:54:06.305Z,14.80
2017-11-23T02:54:40.751Z,15.95
2017-11-23T02:55:15.183Z,14.73
2017-11-23T02:55:49.621Z,15.07
2017-11-23T02:56:24.508Z,16.17
2017-11-23T02:56:58.992Z,14.75
2017-11-23T02:57:33.424Z,15.63
2017-11-23T02:58:08.186Z,16.25
2017-11-23T02:58:42.641Z,15.13
2017-11-23T02:59:17.065Z,15.05
2017-11-23T02:59:51.495Z,16.80
2017-11-23T03:00:25.920Z,13.98
2017-11-23T03:01:00.350Z,16.25
2017-11-23T03:01:35.115Z,14.45
2017-11-23T03:02:09.898Z,15.35
2017-11-23T03:02:44.327Z,16.25
2017-11-23T03:03:19.106Z,14.70
2017-11-23T03:03:53.882Z,16.98
2017-11-23T03:04:28.676Z,15.50
2017-11-23T03:05:03.447Z,15.73
2017-11-23T03:05:38.198Z,15.25
2017-11-23T03:06:12.972Z,16.77
2017-11-23T03:06:47.725Z,15.05
2017-11-23T03:07:22.807Z,14.55
2017-11-23T03:07:57.586Z,15.45
2017-11-23T03:08:32.335Z,15.00
2017-11-23T03:09:07.091Z,15.45
2017-11-23T03:09:41.833Z,15.50
2017-11-23T03:10:16.594Z,15.10
2017-11-23T03:10:51.357Z,14.70
2017-11-23T03:11:25.952Z,15.35
2017-11-23T03:12:00.720Z,15.70
2017-11-23T03:12:35.511Z,14.77
2017-11-23T03:13:10.294Z,15.13
2017-11-23T03:13:45.068Z,15.13
2017-11-23T03:14:19.823Z,15.13
2017-11-23T03:14:54.637Z,15.23
2017-11-23T03:15:29.415Z,15.90
2017-11-23T03:16:04.179Z,15.20
2017-11-23T03:16:38.944Z,15.63
2017-11-23T03:17:13.715Z,14.65
2017-11-23T03:17:48.502Z,15.00
2017-11-23T03:18:23.256Z,15.80
2017-11-23T03:18:58.033Z,14.15
2017-11-23T03:19:32.793Z,14.87
2017-11-23T03:20:07.559Z,16.25
2017-11-23T03:20:42.350Z,15.05
2017-11-23T03:21:17.111Z,15.50
2017-11-23T03:21:51.890Z,15.73
2017-11-23T03:22:26.657Z,15.57
2017-11-23T03:23:01.437Z,15.70
2017-11-23T03:23:36.189Z,14.15
2017-11-23T03:24:10.964Z,14.35
2017-11-23T03:24:45.735Z,14.50
2017-11-23T03:25:20.213Z,15.00
2017-11-23T03:25:55.108Z,13.80
2017-11-23T03:26:29.920Z,14.87
2017-11-23T03:27:04.685Z,14.25
2017-11-23T03:27:39.491Z,14.20
2017-11-23T03:28:14.289Z,13.95
2017-11-23T03:28:48.717Z,13.85
2017-11-23T03:29:23.489Z,13.45
2017-11-23T03:29:58.247Z,14.73
2017-11-23T03:30:32.683Z,14.38
2017-11-23T03:31:07.136Z,14.85
2017-11-23T03:31:41.570Z,14.70
2017-11-23T03:32:16.006Z,13.68
2017-11-23T03:32:50.762Z,14.43
2017-11-23T03:33:25.538Z,14.32
2017-11-23T03:34:00.181Z,13.60
2017-11-23T03:34:34.974Z,14.43
2017-11-23T03:35:10.437Z,13.80
2017-11-23T03:35:45.217Z,14.05
2017-11-23T03:36:19.819Z,14.52
2017-11-23T03:36:55.106Z,14.65
2017-11-23T03:37:29.878Z,12.70
2017-11-23T03:38:04.635Z,14.10
2017-11-23T03:38:39.437Z,14.40
2017-11-23T03:39:14.216Z,14.45
2017-11-23T03:39:48.992Z,13.48
2017-11-23T03:40:23.442Z,12.95
2017-11-23T03:40:57.869Z,14.25
2017-11-23T03:41:32.306Z,13.55
2017-11-23T03:42:06.994Z,14.30
2017-11-23T03:42:41.431Z,14.55
2017-11-23T03:43:16.190Z,13.70
2017-11-23T03:43:50.658Z,13.18
2017-11-23T03:44:25.134Z,14.95
2017-11-23T03:44:59.614Z,14.45
2017-11-23T03:45:34.037Z,13.43
2017-11-23T03:46:08.482Z,14.32
2017-11-23T03:46:42.950Z,14.32
2017-11-23T03:47:17.706Z,13.43
2017-11-23T03:47:52.284Z,13.57
2017-11-23T03:48:27.041Z,14.35
2017-11-23T03:49:01.831Z,14.07
2017-11-23T03:49:36.609Z,12.45
2017-11-23T03:50:11.182Z,13.65
2017-11-23T03:50:45.921Z,13.70
2017-11-23T03:51:20.730Z,12.95
2017-11-23T03:51:55.488Z,13.15
2017-11-23T03:52:30.086Z,12.13
2017-11-23T03:53:04.842Z,12.60
2017-11-23T03:53:39.960Z,11.70
2017-11-23T03:54:15.032Z,12.70
2017-11-23T03:54:49.797Z,12.32
2017-11-23T03:55:24.555Z,11.70
2017-11-23T03:55:59.325Z,13.18
2017-11-23T03:56:34.078Z,12.32
2017-11-23T03:57:08.835Z,12.68
2017-11-23T03:57:43.589Z,12.57
2017-11-23T03:58:18.365Z,12.37
2017-11-23T03:58:53.130Z,12.23
2017-11-23T03:59:27.953Z,12.20
2017-11-23T04:00:02.729Z,11.77
2017-11-23T04:00:37.145Z,12.13
2017-11-23T04:01:11.917Z,12.68
2017-11-23T04:01:46.686Z,11.50
2017-11-23T04:02:21.485Z,12.55
2017-11-23T04:02:56.245Z,13.00
2017-11-23T04:03:30.998Z,11.73
2017-11-23T04:04:05.813Z,11.48
2017-11-23T04:04:40.302Z,12.70
2017-11-23T04:05:15.049Z,11.55
2017-11-23T04:05:49.806Z,12.00
2017-11-23T04:06:24.575Z,12.32
2017-11-23T04:06:59.348Z,12.48
2017-11-23T04:07:34.107Z,11.90
2017-11-23T04:08:08.892Z,12.85
2017-11-23T04:08:43.640Z,12.30
2017-11-23T04:09:18.072Z,13.62
2017-11-23T04:09:52.950Z,12.00
2017-11-23T04:10:27.717Z,12.20
2017-11-23T04:11:02.168Z,12.57
2017-11-23T04:11:36.941Z,12.40
2017-11-23T04:12:11.701Z,12.45
2017-11-23T04:12:46.452Z,12.73
2017-11-23T04:13:21.236Z,12.35
2017-11-23T04:13:56.153Z,12.48
2017-11-23T04:14:30.946Z,13.35
2017-11-23T04:15:05.845Z,12.77
2017-11-23T04:15:40.625Z,12.43
2017-11-23T04:16:15.434Z,12.45
2017-11-23T04:16:50.188Z,11.80
2017-11-23T04:17:24.965Z,12.05
2017-11-23T04:17:59.405Z,12.63
2017-11-23T04:18:34.168Z,13.05
2017-11-23T04:19:08.933Z,12.73
2017-11-23T04:19:43.598Z,12.23
2017-11-23T04:20:18.177Z,12.48
2017-11-23T04:20:52.591Z,12.60
2017-11-23T04:21:27.020Z,11.70
2017-11-23T04:22:02.320Z,12.70
2017-11-23T04:22:37.073Z,12.43
2017-11-23T04:23:11.828Z,12.05
2017-11-23T04:23:46.494Z,11.55
2017-11-23T04:24:20.926Z,12.27
2017-11-23T04:24:55.705Z,11.48
2017-11-23T04:25:30.521Z,12.52
2017-11-23T04:26:04.760Z,13.43
2017-11-23T04:26:39.184Z,12.27
2017-11-23T04:27:13.608Z,12.65
2017-11-23T04:27:48.395Z,12.70
2017-11-23T04:28:23.128Z,13.35
2017-11-23T04:28:57.896Z,11.43
2017-11-23T04:29:32.656Z,12.25
2017-11-23T04:30:07.073Z,11.57
2017-11-23T04:30:42.215Z,11.20
2017-11-23T04:31:16.965Z,11.50
2017-11-23T04:31:51.724Z,12.15
2017-11-23T04:32:26.473Z,11.50
2017-11-23T04:33:01.296Z,10.73
2017-11-23T04:33:36.118Z,10.63
2017-11-23T04:34:10.909Z,11.02
2017-11-23T04:34:45.675Z,12.02
2017-11-23T04:35:20.440Z,11.68
2017-11-23T04:35:55.272Z,11.12
2017-11-23T04:36:30.040Z,12.18
2017-11-23T04:37:04.810Z,11.63
2017-11-23T04:37:39.585Z,11.18
2017-11-23T04:38:14.353Z,12.02
2017-11-23T04:38:49.100Z,11.10
2017-11-23T04:39:23.857Z,11.95
2017-11-23T04:39:58.622Z,10.75
2017-11-23T04:40:33.049Z,11.77
2017-11-23T04:41:07.508Z,10.40
2017-11-23T04:41:41.929Z,10.52
2017-11-23T04:42:16.357Z,11.15
2017-11-23T04:42:50.780Z,11.02
2017-11-23T04:43:25.230Z,11.07
2017-11-23T04:43:59.737Z,10.95
2017-11-23T04:44:34.493Z,10.05
2017-11-23T04:45:09.262Z,10.82
2017-11-23T04:45:44.060Z,11.00
2017-11-23T04:46:18.840Z,10.70
2017-11-23T04:46:53.608Z,10.50
2017-11-23T04:47:28.375Z,10.70
2017-11-23T04:48:03.138Z,10.73
2017-11-23T04:48:37.896Z,11.65
2017-11-23T04:49:12.648Z,11.35
2017-11-23T04:49:47.399Z,10.35
2017-11-23T04:50:22.170Z,11.18
2017-11-23T04:50:56.927Z,10.65
2017-11-23T04:51:31.716Z,10.38
2017-11-23T04:52:06.472Z,10.95
2017-11-23T04:52:41.227Z,10.82
2017-11-23T04:53:15.988Z,10.57
2017-11-23T04:53:50.804Z,11.68
2017-11-23T04:54:25.557Z,10.82
2017-11-23T04:55:00.312Z,10.95
2017-11-23T04:55:35.081Z,11.23
2017-11-23T04:56:09.858Z,10.57
2017-11-23T04:56:44.661Z,9.98
2017-11-23T04:57:19.436Z,10.30
2017-11-23T04:57:54.184Z,9.82
2017-11-23T04:58:28.959Z,10.32
2017-11-23T04:59:03.710Z,9.85
2017-11-23T04:59:38.501Z,9.98
2017-11-23T05:00:13.270Z,10.55
2017-11-23T05:00:48.034Z,10.75
2017-11-23T05:01:22.785Z,11.07
2017-11-23T05:01:57.582Z,10.25
2017-11-23T05:02:32.354Z,9.88
2017-11-23T05:03:07.117Z,10.55
2017-11-23T05:03:41.890Z,10.63
2017-11-23T05:04:16.654Z,9.75
2017-11-23T05:04:51.447Z,11.10
2017-11-23T05:05:26.233Z,10.43
2017-11-23T05:06:00.986Z,9.30
2017-11-23T05:06:35.734Z,10.40
2017-11-23T05:07:10.849Z,9.75
2017-11-23T05:07:45.601Z,10.38
2017-11-23T05:08:20.362Z,10.13
2017-11-23T05:08:54.941Z,9.27
2017-11-23T05:09:29.715Z,10.13
2017-11-23T05:10:04.290Z,10.48
2017-11-23T05:10:38.872Z,9.52
2017-11-23T05:11:13.625Z,8.90
2017-11-23T05:11:48.403Z,9.25
2017-11-23T05:12:23.193Z,9.55
2017-11-23T05:12:57.947Z,8.90
2017-11-23T05:13:32.713Z,8.82
2017-11-23T05:14:07.463Z,9.15
2017-11-23T05:14:42.218Z,9.23
2017-11-23T05:15:16.964Z,9.10
2017-11-23T05:15:51.533Z,10.27
2017-11-23T05:16:26.292Z,9.93
2017-11-23T05:17:01.048Z,9.80
2017-11-23T05:17:35.846Z,10.48
2017-11-23T05:18:10.621Z,10.68
2017-11-23T05:18:45.373Z,11.10
2017-11-23T05:19:20.123Z,11.10
2017-11-23T05:19:54.905Z,11.93
2017-11-23T05:20:29.576Z,11.02
2017-11-23T05:21:04.181Z,10.23
2017-11-23T05:21:38.944Z,10.50
2017-11-23T05:22:13.704Z,9.95
2017-11-23T05:22:48.503Z,11.05
2017-11-23T05:23:23.261Z,11.05
2017-11-23T05:23:58.026Z,10.00
2017-11-23T05:24:32.815Z,9.07
2017-11-23T05:25:07.559Z,9.88
2017-11-23T05:25:42.322Z,10.15
2017-11-23T05:26:17.100Z,10.38
2017-11-23T05:26:51.859Z,10.90
2017-11-23T05:27:26.600Z,9.30
2017-11-23T05:28:01.425Z,10.43
2017-11-23T05:28:36.187Z,9.48
2017-11-23T05:29:10.944Z,9.43
2017-11-23T05:29:45.720Z,10.60
2017-11-23T05:30:20.472Z,9.30
2017-11-23T05:30:55.233Z,9.80
2017-11-23T05:31:29.990Z,9.90
2017-11-23T05:32:04.730Z,9.23
2017-11-23T05:32:39.136Z,9.00
2017-11-23T05:33:14.273Z,9.02
2017-11-23T05:33:49.053Z,9.90
2017-11-23T05:34:23.818Z,8.90
2017-11-23T05:34:58.579Z,9.48
2017-11-23T05:35:33.339Z,8.30
2017-11-23T05:36:08.084Z,8.75
2017-11-23T05:36:42.827Z,8.85
2017-11-23T05:37:17.651Z,8.43
2017-11-23T05:37:52.422Z,9.50
2017-11-23T05:38:27.209Z,9.77
2017-11-23T05:39:01.961Z,10.13
2017-11-23T05:39:36.707Z,9.20
2017-11-23T05:40:11.474Z,9.85
2017-11-23T05:40:46.254Z,9.00
2017-11-23T05:41:20.993Z,8.65
2017-11-23T05:41:55.757Z,10.10
2017-11-23T05:42:30.501Z,8.95
2017-11-23T05:43:05.269Z,8.88
2017-11-23T05:43:40.393Z,9.13
2017-11-23T05:44:15.158Z,9.48
2017-11-23T05:44:49.907Z,9.30
2017-11-23T05:45:24.681Z,8.75
2017-11-23T05:45:59.437Z,8.63
2017-11-23T05:46:34.185Z,8.30
2017-11-23T05:47:08.936Z,8.93
2017-11-23T05:47:43.687Z,8.70
2017-11-23T05:48:18.432Z,9.10
2017-11-23T05:48:53.183Z,8.52
2017-11-23T05:49:27.956Z,8.80
2017-11-23T05:50:03.458Z,8.43
2017-11-23T05:50:38.209Z,8.82
2017-11-23T05:51:12.992Z,8.32
2017-11-23T05:51:47.750Z,9.73
2017-11-23T05:52:22.496Z,8.95
2017-11-23T05:52:57.240Z,8.05
2017-11-23T05:53:31.985Z,9.00
2017-11-23T05:54:07.043Z,8.70
2017-11-23T05:54:41.795Z,8.70
2017-11-23T05:55:16.553Z,8.88
2017-11-23T05:55:51.296Z,8.45
2017-11-23T05:56:26.057Z,8.32
2017-11-23T05:57:00.849Z,8.77
2017-11-23T05:57:35.601Z,9.07
2017-11-23T05:58:10.352Z,8.30
2017-11-23T05:58:45.123Z,8.13
2017-11-23T05:59:19.892Z,7.95
2017-11-23T05:59:54.661Z,8.45
2017-11-23T06:00:29.445Z,9.10
2017-11-23T06:01:04.221Z,8.18
2017-11-23T06:01:38.975Z,8.48
2017-11-23T06:02:13.716Z,8.70
2017-11-23T06:02:48.135Z,7.82
2017-11-23T06:03:22.695Z,8.40
2017-11-23T06:03:57.454Z,8.45
2017-11-23T06:04:32.357Z,7.50
2017-11-23T06:05:07.095Z,8.40
2017-11-23T06:05:41.665Z,7.93
2017-11-23T06:06:16.357Z,8.65
2017-11-23T06:06:51.136Z,8.32
2017-11-23T06:07:25.898Z,7.60
2017-11-23T06:08:00.652Z,7.80
2017-11-23T06:08:35.401Z,8.23
2017-11-23T06:09:10.149Z,8.60
2017-11-23T06:09:44.948Z,8.63
2017-11-23T06:10:19.696Z,7.85
2017-11-23T06:10:54.452Z,7.97
2017-11-23T06:11:29.209Z,7.40
2017-11-23T06:12:04.028Z,8.32
2017-11-23T06:12:38.781Z,7.80
2017-11-23T06:13:13.346Z,8.30
2017-11-23T06:13:48.094Z,7.93
2017-11-23T06:14:22.849Z,7.72
2017-11-23T07:29:02.345Z,5.70
2017-11-23T07:29:37.088Z,6.93
2017-11-23T07:30:11.837Z,6.87
2017-11-23T07:30:46.641Z,6.35
2017-11-23T07:31:21.390Z,6.43
2017-11-23T07:31:56.182Z,7.20
2017-11-23T07:32:30.965Z,6.90
2017-11-23T07:33:05.728Z,7.00
2017-11-23T07:33:40.470Z,7.03
2017-11-23T07:34:15.233Z,6.43
2017-11-23T07:34:50.587Z,6.93
2017-11-23T07:35:25.378Z,6.90
2017-11-23T07:36:00.119Z,6.68
2017-11-23T07:36:34.873Z,7.00
2017-11-23T07:37:09.618Z,5.87
2017-11-23T07:37:44.677Z,6.85
2017-11-23T07:38:19.436Z,7.07
2017-11-23T07:38:54.183Z,6.10
2017-11-23T07:39:28.929Z,6.43
2017-11-23T07:40:03.672Z,6.50
2017-11-23T07:40:38.426Z,6.68
2017-11-23T07:41:13.232Z,7.40
2017-11-23T07:41:47.981Z,7.25
2017-11-23T07:42:22.738Z,8.23
2017-11-23T07:42:57.533Z,11.80
2017-11-23T07:43:32.320Z,18.08
2017-11-23T07:44:07.108Z,15.30
2017-11-23T07:44:42.060Z,15.98
2017-11-23T07:45:16.813Z,12.45
2017-11-23T07:45:51.599Z,11.12
2017-11-23T07:46:26.381Z,10.90
2017-11-23T07:47:01.151Z,9.65
2017-11-23T07:47:35.910Z,11.05
2017-11-23T07:48:10.998Z,10.80
2017-11-23T07:48:45.843Z,12.68
2017-11-23T07:49:20.592Z,13.18
2017-11-23T07:49:55.340Z,11.18
2017-11-23T07:50:30.110Z,12.55
2017-11-23T07:51:04.863Z,9.27
2017-11-23T07:51:39.622Z,8.10
2017-11-23T07:52:14.364Z,6.90
2017-11-23T07:52:49.148Z,7.45
2017-11-23T07:53:23.924Z,6.65
2017-11-23T07:53:58.678Z,6.65
2017-11-23T07:54:33.425Z,6.82
2017-11-23T07:55:08.169Z,6.85
2017-11-23T07:55:42.934Z,6.50
2017-11-23T07:56:17.668Z,5.62
2017-11-23T07:56:52.413Z,6.45
2017-11-23T07:57:27.215Z,6.50
2017-11-23T07:58:01.976Z,6.70
2017-11-23T07:58:36.817Z,6.82
2017-11-23T07:59:11.557Z,6.82
2017-11-23T07:59:46.324Z,7.87
2017-11-23T08:00:21.094Z,9.75
2017-11-23T08:00:55.844Z,9.70
2017-11-23T08:01:30.583Z,8.40
2017-11-23T08:02:05.325Z,7.40
2017-11-23T08:02:40.082Z,6.93
2017-11-23T08:03:14.822Z,8.05
2017-11-23T08:03:49.588Z,6.20
2017-11-23T08:04:24.449Z,6.75
2017-11-23T08:04:59.192Z,7.93
2017-11-23T08:05:33.937Z,6.35
2017-11-23T08:06:08.701Z,6.22
2017-11-23T08:06:43.445Z,5.90
2017-11-23T08:07:18.168Z,5.90
2017-11-23T08:07:52.908Z,5.28
2017-11-23T08:08:27.666Z,5.90
2017-11-23T08:09:02.728Z,5.97
2017-11-23T08:09:37.493Z,6.03
2017-11-23T08:10:12.241Z,6.45
2017-11-23T08:10:46.989Z,6.47
2017-11-23T08:11:21.739Z,6.22
2017-11-23T08:11:56.538Z,6.47
2017-11-23T08:12:31.288Z,6.80
2017-11-23T08:13:06.026Z,5.90
2017-11-23T08:13:40.789Z,6.22
2017-11-23T08:14:15.541Z,6.07
2017-11-23T08:14:50.339Z,5.70
2017-11-23T08:15:25.100Z,5.85
2017-11-23T08:15:59.883Z,6.85
2017-11-23T08:16:34.297Z,6.15
2017-11-23T08:17:08.713Z,5.93
2017-11-23T08:17:43.121Z,5.85
2017-11-23T08:18:17.858Z,6.00
2017-11-23T08:18:52.626Z,5.82
2017-11-23T08:19:27.406Z,5.75
2017-11-23T08:20:02.146Z,5.35
2017-11-23T08:20:36.554Z,6.00
2017-11-23T08:21:11.300Z,5.35
2017-11-23T08:21:45.858Z,5.65
2017-11-23T08:22:20.605Z,5.78
2017-11-23T08:22:55.345Z,5.30
2017-11-23T08:23:30.105Z,6.10
2017-11-23T08:24:04.854Z,5.78
2017-11-23T08:24:39.629Z,5.72
2017-11-23T08:25:14.378Z,5.43
2017-11-23T08:25:49.130Z,7.47
2017-11-23T08:26:23.896Z,6.28
2017-11-23T08:26:58.641Z,6.03
2017-11-23T08:27:33.382Z,6.82
2017-11-23T08:28:07.958Z,10.65
2017-11-23T08:28:42.709Z,8.55
2017-11-23T08:29:17.489Z,9.30
2017-11-23T08:29:52.471Z,8.57
2017-11-23T08:30:27.033Z,8.30
2017-11-23T08:31:01.789Z,7.55
2017-11-23T08:31:36.542Z,7.03
2017-11-23T08:32:11.276Z,7.10
2017-11-23T08:32:45.717Z,6.60
2017-11-23T08:33:20.565Z,6.43
2017-11-23T08:33:55.504Z,6.70
2017-11-23T08:34:30.271Z,7.50
2017-11-23T08:35:05.330Z,7.43
2017-11-23T08:35:40.112Z,6.65
2017-11-23T08:36:14.859Z,6.35
2017-11-23T08:36:49.592Z,6.20
2017-11-23T08:37:24.360Z,5.80
2017-11-23T08:37:59.102Z,5.30
2017-11-23T08:38:33.840Z,4.97
2017-11-23T08:39:08.588Z,5.85
2017-11-23T08:39:43.396Z,6.15
2017-11-23T08:40:18.167Z,5.37
2017-11-23T08:40:52.908Z,5.18
2017-11-23T08:41:27.662Z,5.53
2017-11-23T08:42:02.428Z,4.80
2017-11-23T08:42:37.180Z,4.72
2017-11-23T08:43:11.921Z,5.05
2017-11-23T08:43:46.686Z,5.57
2017-11-23T08:44:21.741Z,5.07
2017-11-23T08:44:56.636Z,5.62
2017-11-23T08:45:31.410Z,4.45